Open Full Screen Window  High Contrast Mode
August 05, 2015 1:45 AM EDT
Weather Information
Wind Direction
  ---
Wind Speed
  00 kt (0 mph)
Wind Gust
  00 kt (0 mph)
Altimeter
30.02 in
Visibility
10 SM
Temperature
19° C
66° F
Dewpoint
18° C
64° F
Humidity
94%
1hr Rain Fall
00.00 in.
24hr Rain Fall
00.00 in.
Sky Condition
Clear
VFR

METAR KI69 050545Z AUTO 36000KT 10SM CLR 19/18 A3002 RMK AO1

*Background is not an actual portrayal of the airport.